createdAt,value
2018-02-07T00:01:29.433Z,7.93
2018-02-07T00:03:56.991Z,7.53
2018-02-07T00:06:24.594Z,7.00
2018-02-07T00:08:52.169Z,7.77
2018-02-07T00:11:19.840Z,9.57
2018-02-07T00:13:47.412Z,8.03
2018-02-07T00:16:14.973Z,8.30
2018-02-07T00:18:42.546Z,6.90
2018-02-07T00:21:10.162Z,7.43
2018-02-07T00:23:37.726Z,7.50
2018-02-07T00:26:05.347Z,7.77
2018-02-07T00:28:32.958Z,9.07
2018-02-07T00:31:00.579Z,7.70
2018-02-07T00:33:28.137Z,8.03
2018-02-07T00:35:55.709Z,7.97
2018-02-07T00:38:23.326Z,8.90
2018-02-07T00:40:50.952Z,9.43
2018-02-07T00:43:18.520Z,8.87
2018-02-07T00:45:46.146Z,8.70
2018-02-07T00:48:13.713Z,8.93
2018-02-07T00:50:41.287Z,9.67
2018-02-07T00:53:08.862Z,10.30
2018-02-07T00:55:36.465Z,10.20
2018-02-07T00:58:04.046Z,9.77
2018-02-07T01:00:31.609Z,10.10
2018-02-07T01:02:59.293Z,9.00
2018-02-07T01:05:26.863Z,10.67
2018-02-07T01:07:54.406Z,10.70
2018-02-07T01:10:21.974Z,11.07
2018-02-07T01:12:49.598Z,10.87
2018-02-07T01:15:17.184Z,10.77
2018-02-07T01:17:44.764Z,10.70
2018-02-07T01:20:12.382Z,12.40
2018-02-07T01:22:39.958Z,11.60
2018-02-07T01:25:07.525Z,11.07
2018-02-07T01:27:35.094Z,12.03
2018-02-07T01:30:02.701Z,13.70
2018-02-07T01:32:30.330Z,14.30
2018-02-07T01:34:57.898Z,13.10
2018-02-07T01:37:25.530Z,13.17
2018-02-07T01:39:53.151Z,13.00
2018-02-07T01:42:20.774Z,13.40
2018-02-07T01:44:48.345Z,12.63
2018-02-07T01:47:15.909Z,13.30
2018-02-07T01:49:43.539Z,13.83
2018-02-07T01:52:11.101Z,14.13
2018-02-07T01:54:38.731Z,13.07
2018-02-07T01:57:06.375Z,13.47
2018-02-07T01:59:34.042Z,14.20
2018-02-07T02:02:01.687Z,16.63
2018-02-07T02:04:29.254Z,14.90
2018-02-07T02:06:56.835Z,16.33
2018-02-07T02:09:24.401Z,16.40
2018-02-07T02:11:52.017Z,15.03
2018-02-07T02:14:19.644Z,15.47
2018-02-07T02:16:47.266Z,14.60
2018-02-07T02:19:14.874Z,13.43
2018-02-07T02:21:42.499Z,13.47
2018-02-07T02:24:10.134Z,13.50
2018-02-07T02:26:37.767Z,12.97
2018-02-07T02:29:05.405Z,14.60
2018-02-07T02:31:32.974Z,13.37
2018-02-07T02:34:00.598Z,12.60
2018-02-07T02:36:41.047Z,13.10
2018-02-07T02:39:08.632Z,12.60
2018-02-07T02:41:36.214Z,13.87
2018-02-07T02:44:03.780Z,14.70
2018-02-07T02:46:31.404Z,14.00
2018-02-07T02:48:59.001Z,15.60
2018-02-07T02:51:26.631Z,14.50
2018-02-07T02:53:54.306Z,13.73
2018-02-07T02:56:21.943Z,15.23
2018-02-07T02:58:49.631Z,15.40
2018-02-07T03:01:17.202Z,17.57
2018-02-07T03:03:44.770Z,26.30
2018-02-07T03:06:12.361Z,16.13
2018-02-07T03:08:39.921Z,14.80
2018-02-07T03:11:07.539Z,17.60
2018-02-07T03:13:35.174Z,51.10
2018-02-07T03:16:02.820Z,21.73
2018-02-07T03:18:30.402Z,14.50
2018-02-07T03:20:58.033Z,15.50
2018-02-07T03:23:25.716Z,15.33
2018-02-07T03:25:53.285Z,17.17
2018-02-07T03:28:20.857Z,19.47
2018-02-07T03:30:48.483Z,28.27
2018-02-07T03:33:16.049Z,17.97
2018-02-07T03:35:43.617Z,18.23
2018-02-07T03:38:11.317Z,18.10
2018-02-07T03:40:38.944Z,17.47
2018-02-07T03:43:06.514Z,16.93
2018-02-07T03:45:34.086Z,18.70
2018-02-07T03:48:01.646Z,20.00
2018-02-07T03:50:29.227Z,18.37
2018-02-07T03:52:56.810Z,24.43
2018-02-07T03:55:24.373Z,20.77
2018-02-07T03:57:51.999Z,15.90
2018-02-07T04:00:19.611Z,31.17
2018-02-07T04:02:47.298Z,16.50
2018-02-07T04:05:14.867Z,17.10
2018-02-07T04:07:42.495Z,16.43
2018-02-07T04:10:10.130Z,20.43
2018-02-07T04:12:37.702Z,20.43
2018-02-07T04:15:05.325Z,23.30
2018-02-07T04:17:32.976Z,20.20
2018-02-07T04:20:00.612Z,21.90
2018-02-07T04:22:28.252Z,20.07
2018-02-07T04:24:55.918Z,21.17
2018-02-07T04:27:23.499Z,19.97
2018-02-07T04:29:51.065Z,18.90
2018-02-07T04:32:18.681Z,19.97
2018-02-07T04:34:46.262Z,20.90
2018-02-07T04:37:13.905Z,26.70
2018-02-07T04:39:41.495Z,20.73
2018-02-07T04:42:09.066Z,24.67
2018-02-07T04:44:36.644Z,24.67
2018-02-07T04:47:04.211Z,26.47
2018-02-07T04:49:31.871Z,27.47
2018-02-07T04:51:59.426Z,27.60
2018-02-07T04:54:26.999Z,24.47
2018-02-07T04:56:54.642Z,29.10
2018-02-07T04:59:22.210Z,28.43
2018-02-07T05:01:49.795Z,39.43
2018-02-07T05:04:17.375Z,37.70
2018-02-07T05:06:45.057Z,35.30
2018-02-07T05:09:12.626Z,33.83
2018-02-07T05:11:40.200Z,32.10
2018-02-07T05:14:07.779Z,24.80
2018-02-07T05:16:35.358Z,45.83
2018-02-07T05:19:02.930Z,32.73
2018-02-07T05:21:30.493Z,26.90
2018-02-07T05:23:58.113Z,23.97
2018-02-07T05:26:25.735Z,21.87
2018-02-07T05:28:53.362Z,24.97
2018-02-07T05:31:20.986Z,27.33
2018-02-07T05:33:48.548Z,26.50
2018-02-07T05:36:16.175Z,24.03
2018-02-07T05:38:43.799Z,24.70
2018-02-07T05:41:11.425Z,21.30
2018-02-07T05:43:39.000Z,20.90
2018-02-07T05:46:06.556Z,25.50
2018-02-07T05:48:34.126Z,24.20
2018-02-07T05:51:01.747Z,23.57
2018-02-07T05:53:29.314Z,24.03
2018-02-07T05:55:56.886Z,20.93
2018-02-07T05:58:24.563Z,17.37
2018-02-07T06:00:52.177Z,20.27
2018-02-07T06:03:19.801Z,19.50
2018-02-07T06:05:47.374Z,19.57
2018-02-07T06:08:14.949Z,19.10
2018-02-07T06:10:42.530Z,17.70
2018-02-07T06:13:10.172Z,18.80
2018-02-07T06:15:37.854Z,18.87
2018-02-07T06:18:05.441Z,19.37
2018-02-07T06:20:33.014Z,18.77
2018-02-07T06:23:00.571Z,20.90
2018-02-07T06:25:28.200Z,17.30
2018-02-07T06:27:55.774Z,18.70
2018-02-07T06:30:23.389Z,20.07
2018-02-07T06:32:51.080Z,19.20
2018-02-07T06:35:18.712Z,18.43
2018-02-07T06:37:46.342Z,19.73
2018-02-07T06:40:13.915Z,18.23
2018-02-07T06:42:41.477Z,18.73
2018-02-07T06:45:09.069Z,19.00
2018-02-07T06:47:36.643Z,18.73
2018-02-07T06:50:04.265Z,18.40
2018-02-07T06:52:31.902Z,23.07
2018-02-07T06:54:59.516Z,22.20
2018-02-07T06:57:27.094Z,20.80
2018-02-07T06:59:54.665Z,23.67
2018-02-07T07:02:22.306Z,19.13
2018-02-07T07:04:49.954Z,19.40
2018-02-07T07:07:17.578Z,19.10
2018-02-07T07:09:45.214Z,19.00
2018-02-07T07:12:12.823Z,19.43
2018-02-07T07:14:40.398Z,19.57
2018-02-07T07:17:08.026Z,32.57
2018-02-07T07:19:35.669Z,24.13
2018-02-07T07:22:03.233Z,29.07
2018-02-07T07:24:30.858Z,19.00
2018-02-07T07:26:58.487Z,17.67
2018-02-07T07:29:26.053Z,16.40
2018-02-07T07:31:53.643Z,23.10
2018-02-07T07:34:21.219Z,65.43
2018-02-07T07:36:48.866Z,45.80
2018-02-07T07:39:16.447Z,43.57
2018-02-07T07:41:44.073Z,22.37
2018-02-07T07:44:11.712Z,25.13
2018-02-07T07:46:39.357Z,13.30
2018-02-07T07:49:06.948Z,13.20
2018-02-07T07:51:34.518Z,13.27
2018-02-07T07:54:02.094Z,17.30
2018-02-07T07:56:29.722Z,13.50
2018-02-07T07:58:57.345Z,19.53
2018-02-07T08:01:24.929Z,22.43
2018-02-07T08:03:52.554Z,18.00
2018-02-07T08:06:20.130Z,12.93
2018-02-07T08:08:47.758Z,14.10
2018-02-07T08:11:15.398Z,12.03
2018-02-07T08:13:42.962Z,13.17
2018-02-07T08:16:10.580Z,13.83
2018-02-07T08:18:38.154Z,14.63
2018-02-07T08:21:05.788Z,13.20
2018-02-07T08:23:33.367Z,14.60
2018-02-07T08:26:00.946Z,13.33
2018-02-07T08:28:28.582Z,14.80
2018-02-07T08:30:56.215Z,12.40
2018-02-07T08:33:23.830Z,11.50
2018-02-07T08:35:51.386Z,13.10
2018-02-07T08:38:18.957Z,12.60
2018-02-07T08:40:46.548Z,14.00
2018-02-07T08:43:14.123Z,12.73
2018-02-07T08:45:41.694Z,13.37
2018-02-07T08:48:09.358Z,12.50
2018-02-07T08:50:36.982Z,19.00
2018-02-07T08:53:04.565Z,12.87
2018-02-07T08:55:32.220Z,12.57
2018-02-07T08:57:59.806Z,11.57
2018-02-07T09:00:27.365Z,9.93
2018-02-07T09:02:54.950Z,11.00
2018-02-07T09:05:22.528Z,12.40
2018-02-07T09:07:50.206Z,10.00
2018-02-07T09:10:17.846Z,9.90
2018-02-07T09:12:45.415Z,9.47
2018-02-07T09:15:12.991Z,9.57
2018-02-07T09:17:40.654Z,9.60
2018-02-07T09:20:08.369Z,9.83
2018-02-07T09:22:36.028Z,11.67
2018-02-07T09:25:03.602Z,10.07
2018-02-07T09:27:31.257Z,8.63
2018-02-07T09:29:58.908Z,10.30
2018-02-07T09:32:26.526Z,9.97
2018-02-07T09:34:54.106Z,10.97
2018-02-07T09:37:21.687Z,10.60
2018-02-07T09:39:49.285Z,9.80
2018-02-07T09:42:16.854Z,10.03
2018-02-07T09:44:44.472Z,7.83
2018-02-07T09:47:12.107Z,10.50
2018-02-07T09:49:39.804Z,8.97
2018-02-07T09:52:07.380Z,9.03
2018-02-07T09:54:34.960Z,8.90
2018-02-07T09:57:02.604Z,9.57
2018-02-07T09:59:30.234Z,8.77
2018-02-07T10:01:57.855Z,10.80
2018-02-07T10:04:25.481Z,9.10
2018-02-07T10:06:53.071Z,8.67
2018-02-07T10:09:20.645Z,9.63
2018-02-07T10:11:48.231Z,10.77
2018-02-07T10:14:15.865Z,13.20
2018-02-07T10:16:43.508Z,13.73
2018-02-07T10:19:11.139Z,9.70
2018-02-07T10:21:38.715Z,8.30
2018-02-07T10:24:06.328Z,10.30
2018-02-07T10:26:33.891Z,10.77
2018-02-07T10:29:01.454Z,9.60
2018-02-07T10:31:29.168Z,8.80
2018-02-07T10:33:56.802Z,7.00
2018-02-07T10:36:24.361Z,5.90
2018-02-07T10:38:51.977Z,9.47
2018-02-07T10:41:19.606Z,8.80
2018-02-07T10:43:47.259Z,8.00
2018-02-07T10:46:14.830Z,7.77
2018-02-07T10:48:42.485Z,9.23
2018-02-07T10:51:10.075Z,10.27
2018-02-07T10:53:37.646Z,9.43
2018-02-07T10:56:05.213Z,8.40
2018-02-07T10:58:32.857Z,9.60
2018-02-07T11:01:00.498Z,8.20
2018-02-07T11:03:28.094Z,9.43
2018-02-07T11:05:55.660Z,8.23
2018-02-07T11:08:23.247Z,9.07
2018-02-07T11:10:50.814Z,9.50
2018-02-07T11:13:18.501Z,8.83
2018-02-07T11:15:46.137Z,9.00
2018-02-07T11:18:13.687Z,8.50
2018-02-07T11:20:41.313Z,7.80
2018-02-07T11:23:08.889Z,10.50
2018-02-07T11:25:36.463Z,8.77
2018-02-07T11:28:04.085Z,9.33
2018-02-07T11:30:31.795Z,8.50
2018-02-07T11:32:59.419Z,8.10
2018-02-07T11:35:27.005Z,10.10
2018-02-07T11:37:54.578Z,9.33
2018-02-07T11:40:22.123Z,8.83
2018-02-07T11:42:49.700Z,11.27
2018-02-07T11:45:17.284Z,8.93
2018-02-07T11:47:51.642Z,10.10
2018-02-07T11:50:19.215Z,7.77
2018-02-07T11:52:46.805Z,9.20
2018-02-07T11:55:14.405Z,8.50
2018-02-07T11:57:42.051Z,10.13
2018-02-07T12:00:09.736Z,9.57
2018-02-07T12:02:37.366Z,8.80
2018-02-07T12:05:05.050Z,35.07
2018-02-07T12:07:32.617Z,8.47
2018-02-07T12:10:00.244Z,8.57
2018-02-07T12:12:27.974Z,10.47
2018-02-07T12:14:55.520Z,9.20
2018-02-07T12:17:23.111Z,9.27
2018-02-07T12:19:50.738Z,6.40
2018-02-07T12:22:18.433Z,6.30
2018-02-07T12:24:45.999Z,6.23
2018-02-07T12:27:13.552Z,5.37
2018-02-07T12:29:41.177Z,4.73
2018-02-07T12:32:08.750Z,4.70
2018-02-07T12:34:36.339Z,5.13
2018-02-07T12:37:03.951Z,5.43
2018-02-07T12:39:31.727Z,5.17
2018-02-07T12:41:59.354Z,5.43
2018-02-07T12:44:26.926Z,6.47
2018-02-07T12:46:54.562Z,8.00
2018-02-07T12:49:22.138Z,6.20
2018-02-07T12:51:49.713Z,7.37
2018-02-07T12:54:17.288Z,6.57
2018-02-07T12:56:44.973Z,16.73
2018-02-07T12:59:12.598Z,18.00
2018-02-07T13:01:40.170Z,22.97
2018-02-07T13:04:07.750Z,22.70
2018-02-07T13:06:36.224Z,23.00
2018-02-07T13:09:03.904Z,23.60
2018-02-07T13:11:31.601Z,24.17
2018-02-07T13:13:59.240Z,24.33
2018-02-07T13:16:26.801Z,24.27
2018-02-07T13:18:54.450Z,25.13
2018-02-07T13:21:22.027Z,24.10
2018-02-07T13:23:49.589Z,24.20
2018-02-07T13:26:17.147Z,22.10
2018-02-07T13:28:44.778Z,23.13
2018-02-07T13:31:12.538Z,25.37
2018-02-07T13:33:40.161Z,22.97
2018-02-07T13:36:07.741Z,23.17
2018-02-07T13:38:35.384Z,20.70
2018-02-07T13:41:02.956Z,22.30
2018-02-07T13:43:30.538Z,24.37
2018-02-07T13:45:58.150Z,23.70
2018-02-07T13:48:25.774Z,27.87
2018-02-07T13:50:53.351Z,24.80
2018-02-07T13:53:20.983Z,22.40
2018-02-07T13:55:48.561Z,25.13
2018-02-07T13:58:16.201Z,21.90
2018-02-07T14:00:49.389Z,22.83
2018-02-07T14:03:17.031Z,22.60
2018-02-07T14:05:44.664Z,23.43
2018-02-07T14:08:12.302Z,22.30
2018-02-07T14:10:39.931Z,26.27
2018-02-07T14:13:07.577Z,40.23
2018-02-07T14:15:35.168Z,23.70
2018-02-07T14:18:02.744Z,22.97
2018-02-07T14:20:30.310Z,22.60
2018-02-07T14:22:57.930Z,30.70
2018-02-07T14:25:25.499Z,26.73
2018-02-07T14:27:53.055Z,24.63
2018-02-07T14:30:20.648Z,29.47
2018-02-07T14:32:48.213Z,31.10
2018-02-07T14:35:15.862Z,36.33
2018-02-07T14:37:43.426Z,24.90
2018-02-07T14:40:11.112Z,30.83
2018-02-07T14:42:38.692Z,28.80
2018-02-07T14:45:06.276Z,31.83
2018-02-07T14:47:33.879Z,24.73
2018-02-07T14:50:01.451Z,29.50
2018-02-07T14:52:29.036Z,27.17
2018-02-07T14:54:56.662Z,32.27
2018-02-07T14:57:24.282Z,35.70
2018-02-07T14:59:51.906Z,31.60
2018-02-07T15:02:19.470Z,31.47
2018-02-07T15:04:47.051Z,39.57
2018-02-07T15:07:14.694Z,42.57
2018-02-07T15:09:42.340Z,42.00
2018-02-07T15:12:09.906Z,38.23
2018-02-07T15:14:37.533Z,28.43
2018-02-07T15:17:05.111Z,21.10
2018-02-07T15:19:32.757Z,24.60
2018-02-07T15:22:00.339Z,27.17
2018-02-07T15:24:27.976Z,31.47
2018-02-07T15:26:55.589Z,31.60
2018-02-07T15:29:23.187Z,35.73
2018-02-07T15:31:50.802Z,31.67
2018-02-07T15:34:18.369Z,24.00
2018-02-07T15:36:45.990Z,28.70
2018-02-07T15:39:13.561Z,32.80
2018-02-07T15:41:41.142Z,46.30
2018-02-07T15:44:08.936Z,54.03
2018-02-07T15:46:36.570Z,31.60
2018-02-07T15:49:04.289Z,31.10
2018-02-07T15:51:31.857Z,30.77
2018-02-07T15:53:59.479Z,30.60
2018-02-07T15:56:27.031Z,30.47
2018-02-07T15:58:54.602Z,32.80
2018-02-07T16:01:22.252Z,32.97
2018-02-07T16:03:49.839Z,34.67
2018-02-07T16:06:18.352Z,33.67
2018-02-07T16:08:45.917Z,33.50
2018-02-07T16:11:13.486Z,36.80
2018-02-07T16:13:41.067Z,26.27
2018-02-07T16:16:08.679Z,27.70
2018-02-07T16:18:36.321Z,31.30
2018-02-07T16:21:03.980Z,128.30
2018-02-07T16:23:31.607Z,33.27
2018-02-07T16:25:59.244Z,59.60
2018-02-07T16:28:26.821Z,178.57
2018-02-07T16:30:54.420Z,27.53
2018-02-07T16:33:21.991Z,20.73
2018-02-07T16:35:49.580Z,19.83
2018-02-07T16:38:17.319Z,20.23
2018-02-07T16:40:44.929Z,22.43
2018-02-07T16:43:12.489Z,21.60
2018-02-07T16:45:40.229Z,20.20
2018-02-07T16:48:07.810Z,22.20
2018-02-07T16:50:35.378Z,23.70
2018-02-07T16:53:03.014Z,35.27
2018-02-07T16:55:30.638Z,71.73
2018-02-07T16:57:58.277Z,39.10
2018-02-07T17:00:25.905Z,35.63
2018-02-07T17:02:53.467Z,30.63
2018-02-07T17:05:21.038Z,28.10
2018-02-07T17:07:48.663Z,25.00
2018-02-07T17:10:16.294Z,23.00
2018-02-07T17:12:43.865Z,24.50
2018-02-07T17:15:11.539Z,25.27
2018-02-07T17:17:39.105Z,27.70
2018-02-07T17:20:06.678Z,33.73
2018-02-07T17:22:34.322Z,39.10
2018-02-07T17:25:01.948Z,40.67
2018-02-07T17:27:29.563Z,43.80
2018-02-07T17:29:57.615Z,37.57
2018-02-07T17:32:25.189Z,36.53
2018-02-07T17:34:52.815Z,39.23
2018-02-07T17:37:20.389Z,41.90
2018-02-07T17:39:48.014Z,54.83
2018-02-07T17:42:16.334Z,39.50
2018-02-07T17:44:43.990Z,38.60
2018-02-07T17:47:11.614Z,67.17
2018-02-07T17:49:39.181Z,50.03
2018-02-07T17:52:06.799Z,43.20
2018-02-07T17:54:34.376Z,41.47
2018-02-07T17:57:01.951Z,43.13
2018-02-07T17:59:29.582Z,41.60
2018-02-07T18:01:57.203Z,39.33
2018-02-07T18:04:24.854Z,36.30
2018-02-07T18:06:52.483Z,38.67
2018-02-07T18:09:20.127Z,38.57
2018-02-07T18:11:47.702Z,37.80
2018-02-07T18:14:15.346Z,39.10
2018-02-07T18:16:42.979Z,35.47
2018-02-07T18:19:10.544Z,28.80
2018-02-07T18:21:38.162Z,26.20
2018-02-07T18:24:05.722Z,24.80
2018-02-07T18:26:33.289Z,26.67
2018-02-07T18:29:00.889Z,40.07
2018-02-07T18:31:28.533Z,30.47
2018-02-07T18:33:56.119Z,29.50
2018-02-07T18:36:23.660Z,24.10
2018-02-07T18:38:51.268Z,25.53
2018-02-07T18:41:18.845Z,24.20
2018-02-07T18:43:46.395Z,24.53
2018-02-07T18:46:14.038Z,22.97
2018-02-07T18:48:41.593Z,24.50
2018-02-07T18:51:09.167Z,25.70
2018-02-07T18:53:36.730Z,21.27
2018-02-07T18:56:04.357Z,23.13
2018-02-07T18:58:31.932Z,21.97
2018-02-07T19:00:59.505Z,20.60
2018-02-07T19:03:27.120Z,25.50
2018-02-07T19:05:54.691Z,23.30
2018-02-07T19:08:22.264Z,22.63
2018-02-07T19:10:49.867Z,22.33
2018-02-07T19:13:17.483Z,22.43
2018-02-07T19:15:45.055Z,21.90
2018-02-07T19:18:12.679Z,22.37
2018-02-07T19:20:40.261Z,20.93
2018-02-07T19:23:07.831Z,19.93
2018-02-07T19:25:35.418Z,19.83
2018-02-07T19:28:02.987Z,20.70
2018-02-07T19:30:30.679Z,46.37
2018-02-07T19:32:58.303Z,22.80
2018-02-07T19:35:25.894Z,20.70
2018-02-07T19:37:53.576Z,20.53
2018-02-07T19:40:21.206Z,22.40
2018-02-07T19:42:48.819Z,23.00
2018-02-07T19:45:16.372Z,26.67
2018-02-07T19:47:44.045Z,45.57
2018-02-07T19:50:11.729Z,24.40
2018-02-07T19:52:39.306Z,24.97
2018-02-07T19:55:06.940Z,49.90
2018-02-07T19:57:34.493Z,29.70
2018-02-07T20:00:02.069Z,22.83
2018-02-07T20:02:29.619Z,27.60
2018-02-07T20:04:57.327Z,29.70
2018-02-07T20:07:24.901Z,21.57
2018-02-07T20:09:52.528Z,20.60
2018-02-07T20:12:20.176Z,22.77
2018-02-07T20:14:47.746Z,30.43
2018-02-07T20:17:15.379Z,31.70
2018-02-07T20:19:42.942Z,28.13
2018-02-07T20:22:10.688Z,21.47
2018-02-07T20:24:38.261Z,22.17
2018-02-07T20:27:05.850Z,21.67
2018-02-07T20:29:33.425Z,19.47
2018-02-07T20:32:01.067Z,20.70
2018-02-07T20:34:28.649Z,21.47
2018-02-07T20:36:56.208Z,27.00
2018-02-07T20:39:23.830Z,32.47
2018-02-07T20:41:51.429Z,28.30
2018-02-07T20:44:19.129Z,27.57
2018-02-07T20:46:46.753Z,28.30
2018-02-07T20:49:14.317Z,23.93
2018-02-07T20:51:41.886Z,24.37
2018-02-07T20:54:09.423Z,21.20
2018-02-07T20:56:37.035Z,20.67
2018-02-07T20:59:04.580Z,21.27
2018-02-07T21:01:32.149Z,20.40
2018-02-07T21:03:59.783Z,27.47
2018-02-07T21:06:27.343Z,23.40
2018-02-07T21:08:54.914Z,22.10
2018-02-07T21:11:22.551Z,22.90
2018-02-07T21:13:50.262Z,23.27
2018-02-07T21:16:17.820Z,23.97
2018-02-07T21:18:45.381Z,24.00
2018-02-07T21:21:12.950Z,23.27
2018-02-07T21:23:40.510Z,25.17
2018-02-07T21:26:08.139Z,23.77
2018-02-07T21:28:35.702Z,23.60
2018-02-07T21:31:03.363Z,22.87
2018-02-07T21:33:30.994Z,24.57
2018-02-07T21:35:58.554Z,22.60
2018-02-07T21:38:26.117Z,24.97
2018-02-07T21:40:53.738Z,22.73
2018-02-07T21:43:21.319Z,22.37
2018-02-07T21:45:48.877Z,24.20
2018-02-07T21:48:16.537Z,22.40
2018-02-07T21:50:44.110Z,25.10
2018-02-07T21:53:11.662Z,22.87
2018-02-07T21:55:39.237Z,21.57
2018-02-07T21:58:06.807Z,23.80
2018-02-07T22:00:34.378Z,23.50
2018-02-07T22:03:01.952Z,22.47
2018-02-07T22:05:29.673Z,22.53
2018-02-07T22:07:57.234Z,19.77
2018-02-07T22:10:24.794Z,20.27
2018-02-07T22:12:52.362Z,21.40
2018-02-07T22:15:19.923Z,24.60
2018-02-07T22:17:47.487Z,23.00
2018-02-07T22:20:15.046Z,22.60
2018-02-07T22:22:42.654Z,23.53
2018-02-07T22:25:10.211Z,22.60
2018-02-07T22:27:37.769Z,22.67
2018-02-07T22:30:05.431Z,23.40
2018-02-07T22:32:33.052Z,24.63
2018-02-07T22:35:00.696Z,23.07
2018-02-07T22:37:28.257Z,23.43
2018-02-07T22:39:55.879Z,25.53
2018-02-07T22:42:23.494Z,25.67
2018-02-07T22:44:51.134Z,24.17
2018-02-07T22:47:18.766Z,26.83
2018-02-07T22:49:46.329Z,26.17
2018-02-07T22:52:13.899Z,25.27
2018-02-07T22:54:41.461Z,23.90
2018-02-07T22:57:09.137Z,23.20
2018-02-07T22:59:36.702Z,22.63
2018-02-07T23:02:04.262Z,22.97
2018-02-07T23:04:31.880Z,24.80
2018-02-07T23:06:59.438Z,23.63
2018-02-07T23:09:27.058Z,24.63
2018-02-07T23:11:54.670Z,27.87
2018-02-07T23:14:22.343Z,27.77
2018-02-07T23:16:49.902Z,28.07
2018-02-07T23:19:17.470Z,27.60
2018-02-07T23:21:45.106Z,24.80
2018-02-07T23:24:12.726Z,24.80
2018-02-07T23:26:40.417Z,22.60
2018-02-07T23:29:07.973Z,23.03
2018-02-07T23:31:35.586Z,24.00
2018-02-07T23:34:03.145Z,24.37
2018-02-07T23:36:30.757Z,25.33
2018-02-07T23:38:58.380Z,26.17
2018-02-07T23:41:25.934Z,26.13
2018-02-07T23:43:53.562Z,25.37
2018-02-07T23:46:21.192Z,25.50
2018-02-07T23:48:48.880Z,24.93
2018-02-07T23:51:16.448Z,25.87
2018-02-07T23:53:44.103Z,25.57
2018-02-07T23:56:11.688Z,24.70
2018-02-07T23:58:39.249Z,23.17
